createdAt,value
2017-08-13T00:02:36.030Z,4.33
2017-08-13T00:05:06.979Z,5.00
2017-08-13T00:07:36.229Z,5.70
2017-08-13T00:10:06.822Z,6.20
2017-08-13T00:12:38.822Z,6.47
2017-08-13T00:15:12.392Z,8.97
2017-08-13T00:17:41.713Z,7.80
2017-08-13T00:40:08.254Z,14.10
2017-08-13T00:42:56.655Z,9.07
2017-08-13T00:45:37.463Z,5.63
2017-08-13T00:48:18.642Z,5.93
2017-08-13T00:50:52.995Z,6.00
2017-08-13T00:53:22.437Z,5.57
2017-08-13T00:56:07.863Z,6.53
2017-08-13T01:01:43.915Z,5.97
2017-08-13T01:04:12.475Z,5.87
2017-08-13T01:09:17.273Z,5.60
2017-08-13T01:11:50.969Z,6.57
2017-08-13T01:14:22.448Z,7.20
2017-08-13T01:17:04.792Z,5.83
2017-08-13T01:22:33.713Z,6.23
2017-08-13T01:25:19.490Z,6.90
2017-08-13T01:27:57.500Z,6.83
2017-08-13T01:33:37.808Z,6.87
2017-08-13T01:36:10.246Z,7.27
2017-08-13T01:39:09.926Z,8.40
2017-08-13T02:00:20.641Z,11.03
2017-08-13T02:11:41.768Z,12.13
2017-08-13T02:14:33.714Z,10.93
2017-08-13T02:25:02.110Z,15.80
2017-08-13T02:27:51.434Z,16.40
2017-08-13T02:30:23.741Z,16.10
2017-08-13T02:54:58.400Z,18.10
2017-08-13T03:00:54.931Z,17.57
2017-08-13T03:15:46.272Z,18.60
2017-08-13T03:18:28.642Z,17.63
2017-08-13T03:27:06.770Z,18.70
2017-08-13T03:33:08.751Z,19.40
2017-08-13T03:42:04.958Z,18.90
2017-08-13T03:44:35.304Z,19.03
2017-08-13T03:47:08.138Z,19.10
2017-08-13T03:49:36.743Z,17.67
2017-08-13T03:52:06.168Z,19.40
2017-08-13T03:54:35.605Z,17.10
2017-08-13T03:57:06.870Z,19.13
2017-08-13T03:59:38.868Z,17.27
2017-08-13T04:02:10.218Z,17.70
2017-08-13T04:04:41.805Z,18.00
2017-08-13T04:07:11.610Z,18.30
2017-08-13T04:09:45.606Z,17.40
2017-08-13T04:12:17.909Z,18.40
2017-08-13T04:18:17.209Z,19.00
2017-08-13T04:39:29.698Z,20.13
2017-08-13T04:42:04.153Z,21.70
2017-08-13T04:47:39.620Z,21.00
2017-08-13T04:50:16.216Z,22.90
2017-08-13T04:52:47.385Z,24.57
2017-08-13T04:55:21.745Z,23.80
2017-08-13T04:57:50.404Z,21.67
2017-08-13T05:00:20.579Z,21.87
2017-08-13T05:08:07.777Z,22.90
2017-08-13T05:10:45.839Z,23.47
2017-08-13T05:13:25.047Z,25.53
2017-08-13T05:21:45.053Z,27.47
2017-08-13T05:24:34.620Z,25.40
2017-08-13T05:35:53.796Z,23.80
2017-08-13T05:38:33.380Z,23.60
2017-08-13T05:41:16.104Z,23.27
2017-08-13T05:44:06.824Z,26.87
2017-08-13T05:52:09.386Z,30.77
2017-08-13T06:00:42.054Z,30.40
2017-08-13T06:03:16.911Z,30.67
2017-08-13T06:08:39.425Z,33.80
2017-08-13T06:16:49.990Z,32.33
2017-08-13T06:19:21.805Z,28.83
2017-08-13T06:22:03.062Z,30.20
2017-08-13T06:24:37.618Z,30.97
2017-08-13T06:27:13.366Z,30.03
2017-08-13T06:29:42.038Z,27.77
2017-08-13T06:32:14.933Z,29.07
2017-08-13T06:34:48.725Z,32.37
2017-08-13T06:37:21.465Z,31.37
2017-08-13T06:39:52.823Z,31.10
2017-08-13T06:42:26.121Z,30.33
2017-08-13T06:44:56.532Z,30.33
2017-08-13T06:50:17.378Z,30.20
2017-08-13T06:53:01.948Z,30.80
2017-08-13T06:55:31.190Z,31.80
2017-08-13T06:57:59.505Z,30.27
2017-08-13T07:00:28.796Z,28.57
2017-08-13T07:02:59.057Z,32.53
2017-08-13T07:05:27.322Z,28.90
2017-08-13T07:07:55.558Z,29.43
2017-08-13T07:10:23.701Z,28.73
2017-08-13T07:12:51.807Z,28.60
2017-08-13T07:15:19.938Z,30.37
2017-08-13T07:17:58.643Z,32.43
2017-08-13T07:20:30.774Z,34.00
2017-08-13T07:23:01.114Z,33.27
2017-08-13T07:25:30.352Z,34.60
2017-08-13T07:28:02.150Z,36.07
2017-08-13T07:30:35.881Z,36.83
2017-08-13T07:33:04.360Z,38.20
2017-08-13T07:35:32.547Z,36.50
2017-08-13T07:38:00.794Z,39.47
2017-08-13T07:40:29.150Z,36.93
2017-08-13T07:42:58.321Z,41.07
2017-08-13T07:45:30.030Z,35.47
2017-08-13T07:48:01.233Z,34.47
2017-08-13T07:50:29.417Z,38.70
2017-08-13T07:52:57.604Z,36.40
2017-08-13T07:55:26.820Z,35.50
2017-08-13T07:57:56.105Z,35.83
2017-08-13T08:00:24.319Z,35.90
2017-08-13T08:02:52.932Z,31.97
2017-08-13T08:05:22.110Z,30.20
2017-08-13T08:07:52.304Z,27.37
2017-08-13T08:10:20.470Z,27.57
2017-08-13T08:12:49.604Z,26.60
2017-08-13T08:15:21.044Z,27.53
2017-08-13T08:17:55.166Z,29.10
2017-08-13T08:20:29.771Z,26.90
2017-08-13T08:22:58.046Z,24.37
2017-08-13T08:25:27.242Z,23.07
2017-08-13T08:27:58.923Z,22.83
2017-08-13T08:30:27.906Z,24.97
2017-08-13T08:33:01.992Z,21.67
2017-08-13T08:35:31.200Z,21.00
2017-08-13T08:38:00.416Z,19.07
2017-08-13T08:40:28.538Z,20.17
2017-08-13T08:42:56.756Z,20.30
2017-08-13T08:45:25.676Z,21.57
2017-08-13T08:47:54.047Z,15.97
2017-08-13T08:50:22.216Z,17.10
2017-08-13T08:52:51.342Z,16.70
2017-08-13T08:55:20.254Z,15.27
2017-08-13T08:57:48.429Z,16.40
2017-08-13T09:00:23.231Z,17.40
2017-08-13T09:02:52.563Z,15.13
2017-08-13T09:05:21.780Z,16.47
2017-08-13T09:07:50.882Z,16.07
2017-08-13T09:10:19.137Z,14.87
2017-08-13T09:12:47.261Z,13.90
2017-08-13T09:15:17.467Z,12.93
2017-08-13T09:17:45.663Z,13.37
2017-08-13T09:20:15.850Z,12.87
2017-08-13T09:22:58.361Z,12.93
2017-08-13T09:25:26.519Z,13.17
2017-08-13T09:27:58.239Z,13.07
2017-08-13T09:30:26.363Z,14.00
2017-08-13T09:32:55.483Z,15.00
2017-08-13T09:35:23.620Z,15.37
2017-08-13T09:37:51.724Z,17.60
2017-08-13T09:40:19.865Z,17.20
2017-08-13T09:42:48.035Z,20.40
2017-08-13T09:45:16.142Z,17.87
2017-08-13T09:47:45.220Z,18.00
2017-08-13T09:50:14.418Z,15.80
2017-08-13T09:52:43.450Z,16.57
2017-08-13T09:55:11.636Z,17.10
2017-08-13T09:57:41.206Z,15.97
2017-08-13T10:00:10.100Z,17.03
2017-08-13T10:02:38.339Z,12.87
2017-08-13T10:05:06.503Z,12.53
2017-08-13T10:07:34.663Z,11.67
2017-08-13T10:10:03.724Z,11.20
2017-08-13T10:12:32.945Z,11.73
2017-08-13T10:15:01.162Z,12.87
2017-08-13T10:17:29.315Z,11.40
2017-08-13T10:19:58.152Z,14.60
2017-08-13T10:22:27.344Z,13.00
2017-08-13T10:24:55.507Z,13.57
2017-08-13T10:27:24.452Z,14.60
2017-08-13T10:29:53.487Z,13.07
2017-08-13T10:32:27.767Z,12.57
2017-08-13T10:34:55.885Z,9.80
2017-08-13T10:37:24.057Z,11.37
2017-08-13T10:39:53.109Z,13.07
2017-08-13T10:42:21.221Z,12.30
2017-08-13T10:44:49.356Z,12.93
2017-08-13T10:47:18.289Z,9.40
2017-08-13T10:49:47.211Z,9.30
2017-08-13T10:52:19.119Z,10.33
2017-08-13T10:54:47.285Z,10.37
2017-08-13T10:57:15.414Z,8.40
2017-08-13T10:59:43.565Z,9.07
2017-08-13T11:02:11.693Z,9.23
2017-08-13T11:04:39.821Z,9.37
2017-08-13T11:07:11.358Z,10.57
2017-08-13T11:09:39.526Z,10.13
2017-08-13T11:12:08.576Z,10.87
2017-08-13T11:14:36.781Z,11.97
2017-08-13T11:17:04.980Z,9.13
2017-08-13T11:19:33.158Z,9.47
2017-08-13T11:22:01.268Z,4.97
2017-08-13T11:24:29.433Z,6.40
2017-08-13T11:27:00.844Z,7.93
2017-08-13T11:29:28.987Z,7.27
2017-08-13T11:31:57.210Z,3.90
2017-08-13T11:34:26.209Z,5.37
2017-08-13T11:36:57.872Z,7.77
2017-08-13T11:39:26.972Z,6.90
2017-08-13T11:41:59.798Z,7.67
2017-08-13T11:44:29.152Z,5.30
2017-08-13T11:46:57.332Z,4.70
2017-08-13T11:49:32.235Z,4.60
2017-08-13T11:52:00.395Z,4.60
2017-08-13T11:54:28.479Z,3.10
2017-08-13T11:57:00.203Z,3.97
2017-08-13T11:59:28.349Z,3.90
2017-08-13T12:01:56.512Z,4.00
2017-08-13T12:04:25.403Z,3.80
2017-08-13T12:06:54.282Z,3.47
2017-08-13T12:09:22.407Z,3.47
2017-08-13T12:11:50.528Z,3.87
2017-08-13T12:14:19.569Z,3.50
2017-08-13T12:16:47.685Z,3.50
2017-08-13T12:19:16.699Z,4.10
2017-08-13T12:21:44.864Z,3.40
2017-08-13T12:24:15.924Z,3.30
2017-08-13T12:26:43.991Z,4.63
2017-08-13T12:29:12.080Z,2.90
2017-08-13T12:31:40.160Z,3.17
2017-08-13T12:34:08.269Z,2.90
2017-08-13T12:36:36.347Z,2.13
2017-08-13T12:39:04.425Z,2.40
2017-08-13T12:41:32.543Z,2.70
2017-08-13T12:44:00.639Z,2.87
2017-08-13T12:46:28.711Z,2.90
2017-08-13T12:48:58.728Z,3.10
2017-08-13T12:51:26.831Z,2.80
2017-08-13T12:53:55.834Z,2.90
2017-08-13T12:56:23.934Z,2.80
2017-08-13T12:58:52.027Z,2.50
2017-08-13T13:01:20.099Z,3.47
2017-08-13T13:03:48.219Z,3.93
2017-08-13T13:06:17.256Z,3.30
2017-08-13T13:08:45.381Z,2.83
2017-08-13T13:11:13.481Z,4.03
2017-08-13T13:13:41.576Z,3.20
2017-08-13T13:16:09.687Z,4.20
2017-08-13T13:18:37.799Z,2.90
2017-08-13T13:21:05.876Z,2.57
2017-08-13T13:35:28.965Z,3.20
2017-08-13T13:41:00.169Z,3.00
2017-08-13T13:43:28.264Z,2.80
2017-08-13T13:52:06.529Z,3.00
2017-08-13T13:54:39.189Z,3.33
2017-08-13T13:57:11.844Z,3.10
2017-08-13T13:59:41.337Z,2.90
2017-08-13T14:02:11.607Z,2.90
2017-08-13T14:04:39.768Z,3.77
2017-08-13T14:07:07.935Z,3.60
2017-08-13T14:09:36.114Z,3.50
2017-08-13T14:12:04.302Z,3.43
2017-08-13T14:14:35.830Z,7.57
2017-08-13T14:17:03.995Z,3.90
2017-08-13T14:19:35.120Z,8.57
2017-08-13T14:22:03.268Z,3.93
2017-08-13T14:24:31.419Z,3.83
2017-08-13T14:26:59.610Z,4.37
2017-08-13T14:29:28.125Z,5.00
2017-08-13T14:31:56.272Z,3.37
2017-08-13T14:34:24.576Z,3.50
2017-08-13T14:36:52.892Z,4.47
2017-08-13T14:39:23.639Z,5.00
2017-08-13T14:41:51.942Z,6.57
2017-08-13T14:44:23.619Z,5.30
2017-08-13T14:46:51.715Z,7.20
2017-08-13T14:49:19.838Z,7.50
2017-08-13T14:51:47.953Z,8.27
2017-08-13T14:54:20.364Z,10.67
2017-08-13T14:56:48.495Z,10.13
2017-08-13T14:59:16.650Z,9.97
2017-08-13T15:01:45.568Z,11.10
2017-08-13T15:04:13.691Z,9.30
2017-08-13T15:06:42.024Z,9.13
2017-08-13T15:09:11.064Z,7.80
2017-08-13T15:11:39.161Z,12.47
2017-08-13T15:14:07.515Z,9.50
2017-08-13T15:16:35.652Z,7.67
2017-08-13T15:19:03.766Z,8.90
2017-08-13T15:21:31.895Z,8.40
2017-08-13T15:24:00.979Z,9.50
2017-08-13T15:26:29.891Z,10.00
2017-08-13T15:28:58.035Z,8.63
2017-08-13T15:31:26.352Z,9.13
2017-08-13T15:33:54.511Z,13.30
2017-08-13T15:36:22.648Z,9.13
2017-08-13T15:38:50.984Z,28.10
2017-08-13T15:41:19.116Z,17.60
2017-08-13T15:43:47.980Z,35.27
2017-08-13T15:46:16.317Z,10.10
2017-08-13T15:48:44.417Z,10.03
2017-08-13T15:51:12.928Z,21.00
2017-08-13T15:53:41.098Z,31.07
2017-08-13T15:56:09.411Z,8.70
2017-08-13T15:58:37.507Z,7.77
2017-08-13T16:01:07.596Z,6.83
2017-08-13T16:03:36.472Z,6.10
2017-08-13T16:06:05.654Z,17.00
2017-08-13T16:08:34.675Z,8.33
2017-08-13T16:11:03.033Z,6.30
2017-08-13T16:13:35.035Z,6.40
2017-08-13T16:16:03.464Z,7.23
2017-08-13T16:18:31.654Z,5.83
2017-08-13T16:21:00.585Z,10.70
2017-08-13T16:23:28.795Z,6.80
2017-08-13T16:25:57.120Z,5.87
2017-08-13T16:28:26.070Z,6.00
2017-08-13T16:30:54.189Z,4.50
2017-08-13T16:33:23.289Z,5.67
2017-08-13T16:35:51.465Z,5.80
2017-08-13T16:38:19.634Z,5.63
2017-08-13T16:40:47.826Z,5.23
2017-08-13T16:43:16.751Z,9.87
2017-08-13T16:45:44.965Z,4.67
2017-08-13T16:48:14.098Z,8.10
2017-08-13T16:50:42.411Z,4.90
2017-08-13T16:53:13.234Z,15.70
2017-08-13T16:55:41.541Z,4.90
2017-08-13T17:07:13.319Z,5.50
2017-08-13T17:09:42.000Z,4.67
2017-08-13T17:12:13.435Z,5.63
2017-08-13T17:14:41.912Z,4.97
2017-08-13T17:17:10.468Z,5.63
2017-08-13T17:19:38.652Z,5.53
2017-08-13T17:22:07.242Z,6.50
2017-08-13T17:24:35.408Z,5.90
2017-08-13T17:27:04.281Z,5.17
2017-08-13T17:29:33.219Z,5.53
2017-08-13T17:32:02.210Z,6.77
2017-08-13T17:34:30.406Z,5.70
2017-08-13T17:37:01.808Z,6.53
2017-08-13T17:39:30.007Z,7.20
2017-08-13T17:42:05.087Z,6.57
2017-08-13T17:44:34.132Z,7.10
2017-08-13T17:47:02.568Z,14.90
2017-08-13T17:49:30.920Z,7.23
2017-08-13T17:51:59.052Z,7.53
2017-08-13T17:54:27.926Z,8.73
2017-08-13T17:56:56.118Z,7.77
2017-08-13T17:59:24.231Z,7.87
2017-08-13T18:01:53.617Z,14.20
2017-08-13T18:04:21.853Z,17.20
2017-08-13T18:06:50.336Z,9.37
2017-08-13T18:09:18.498Z,8.00
2017-08-13T18:11:47.453Z,7.70
2017-08-13T18:14:15.644Z,6.97
2017-08-13T18:16:45.727Z,7.27
2017-08-13T18:24:44.341Z,16.87
2017-08-13T18:27:16.568Z,7.10
2017-08-13T18:29:46.316Z,7.90
2017-08-13T18:47:00.643Z,7.90
2017-08-13T18:49:43.228Z,6.60
2017-08-13T18:55:37.488Z,7.17
2017-08-13T19:10:23.463Z,6.43
2017-08-13T19:12:51.652Z,8.30
2017-08-13T19:15:20.174Z,7.20
2017-08-13T19:17:48.872Z,7.80
2017-08-13T19:20:17.760Z,7.73
2017-08-13T19:22:46.761Z,10.23
2017-08-13T19:25:14.933Z,11.10
2017-08-13T19:27:43.124Z,8.03
2017-08-13T19:30:14.477Z,8.57
2017-08-13T19:32:55.792Z,13.39
2017-08-13T19:46:30.373Z,7.43
2017-08-13T20:15:02.925Z,16.60
2017-08-13T20:17:31.194Z,32.90
2017-08-13T20:19:59.404Z,15.67
2017-08-13T20:22:28.577Z,8.70
2017-08-13T20:24:56.683Z,8.33
2017-08-13T20:27:24.805Z,8.93
2017-08-13T20:29:52.897Z,8.47
2017-08-13T20:32:20.979Z,7.13
2017-08-13T20:34:49.076Z,7.30
2017-08-13T20:37:17.180Z,7.80
2017-08-13T20:39:45.287Z,7.90
2017-08-13T20:42:13.361Z,7.00
2017-08-13T20:44:41.443Z,8.00
2017-08-13T20:47:09.547Z,7.67
2017-08-13T20:49:37.662Z,7.63
2017-08-13T20:52:05.764Z,10.73
2017-08-13T20:54:33.855Z,8.33
2017-08-13T20:57:04.088Z,7.53
2017-08-13T20:59:32.175Z,7.50
2017-08-13T21:02:00.255Z,7.33
2017-08-13T21:04:28.380Z,7.40
2017-08-13T21:06:56.465Z,7.47
2017-08-13T21:09:24.564Z,7.80
2017-08-13T21:11:53.418Z,7.53
2017-08-13T21:14:21.770Z,7.80
2017-08-13T21:16:49.881Z,6.60
2017-08-13T21:19:17.985Z,6.97
2017-08-13T21:21:46.116Z,6.87
2017-08-13T21:24:14.207Z,6.77
2017-08-13T21:26:42.327Z,6.33
2017-08-13T21:29:11.111Z,6.07
2017-08-13T21:31:39.230Z,6.63
2017-08-13T21:34:07.316Z,7.67
2017-08-13T21:36:36.335Z,7.10
2017-08-13T21:39:05.183Z,6.80
2017-08-13T21:41:33.295Z,6.77
2017-08-13T21:44:02.166Z,6.73
2017-08-13T21:46:30.244Z,7.20
2017-08-13T21:48:58.343Z,6.97
2017-08-13T21:51:26.411Z,6.33
2017-08-13T21:53:54.514Z,6.63
2017-08-13T21:56:22.633Z,6.50
2017-08-13T21:58:52.390Z,6.60
2017-08-13T22:01:20.500Z,6.10
2017-08-13T22:03:48.578Z,6.13
2017-08-13T22:06:16.656Z,6.37
2017-08-13T22:08:44.755Z,6.70
2017-08-13T22:11:12.857Z,6.20
2017-08-13T22:13:40.963Z,7.17
2017-08-13T22:16:09.064Z,6.40
2017-08-13T22:18:38.834Z,6.27
2017-08-13T22:21:06.940Z,6.97
2017-08-13T22:23:35.007Z,6.30
2017-08-13T22:26:03.136Z,6.90
2017-08-13T22:28:31.223Z,6.67
2017-08-13T22:30:59.303Z,6.90
2017-08-13T22:33:27.411Z,6.60
2017-08-13T22:35:55.495Z,6.87
2017-08-13T22:38:23.587Z,6.27
2017-08-13T22:40:51.712Z,7.00
2017-08-13T22:43:19.795Z,6.70
2017-08-13T22:45:48.644Z,6.90
2017-08-13T22:48:16.763Z,6.93
2017-08-13T22:50:48.652Z,7.03
2017-08-13T22:53:16.754Z,7.10
2017-08-13T22:55:44.846Z,6.90
2017-08-13T22:58:12.946Z,9.17
2017-08-13T23:00:41.043Z,9.13
2017-08-13T23:03:09.124Z,8.40
2017-08-13T23:05:37.231Z,8.77
2017-08-13T23:08:05.311Z,8.73
2017-08-13T23:10:33.412Z,7.70
2017-08-13T23:13:01.495Z,8.33
2017-08-13T23:15:29.596Z,7.47
2017-08-13T23:17:57.684Z,8.70
2017-08-13T23:20:25.763Z,8.23
2017-08-13T23:22:53.894Z,7.40
2017-08-13T23:25:21.984Z,8.10
2017-08-13T23:27:50.088Z,6.60
2017-08-13T23:30:21.729Z,7.50
2017-08-13T23:32:49.849Z,7.37
2017-08-13T23:35:17.919Z,7.50
2017-08-13T23:37:46.011Z,7.03
2017-08-13T23:40:17.436Z,7.40
2017-08-13T23:42:45.515Z,8.30
2017-08-13T23:45:13.607Z,7.63
2017-08-13T23:47:41.691Z,8.10
2017-08-13T23:50:09.783Z,8.20
2017-08-13T23:52:37.900Z,7.90
2017-08-13T23:55:05.974Z,8.50
2017-08-13T23:57:34.048Z,7.47
